sensor_id;sensor_type;location;lat;lon;timestamp;temperature;humidity
26278;DHT22;14000;52.056;8.510;2022-12-07T00:01:40;4.40;99.90
26278;DHT22;14000;52.056;8.510;2022-12-07T00:04:09;4.40;99.90
26278;DHT22;14000;52.056;8.510;2022-12-07T00:06:38;4.40;99.90
26278;DHT22;14000;52.056;8.510;2022-12-07T00:09:05;4.40;99.90
26278;DHT22;14000;52.056;8.510;2022-12-07T00:11:31;4.50;99.90
26278;DHT22;14000;52.056;8.510;2022-12-07T00:14:00;4.50;99.90
26278;DHT22;14000;52.056;8.510;2022-12-07T00:16:29;4.50;99.90
26278;DHT22;14000;52.056;8.510;2022-12-07T00:18:55;4.50;99.90
26278;DHT22;14000;52.056;8.510;2022-12-07T00:21:26;4.60;99.90
26278;DHT22;14000;52.056;8.510;2022-12-07T00:23:53;4.60;99.90
26278;DHT22;14000;52.056;8.510;2022-12-07T00:26:21;4.60;99.90
26278;DHT22;14000;52.056;8.510;2022-12-07T00:28:49;4.60;99.90
26278;DHT22;14000;52.056;8.510;2022-12-07T00:31:17;4.60;99.90
26278;DHT22;14000;52.056;8.510;2022-12-07T00:33:43;4.60;99.90
26278;DHT22;14000;52.056;8.510;2022-12-07T00:36:18;4.60;99.90
26278;DHT22;14000;52.056;8.510;2022-12-07T00:38:44;4.60;99.90
26278;DHT22;14000;52.056;8.510;2022-12-07T00:41:19;4.60;99.90
26278;DHT22;14000;52.056;8.510;2022-12-07T00:43:46;4.60;99.90
26278;DHT22;14000;52.056;8.510;2022-12-07T00:46:12;4.60;99.90
26278;DHT22;14000;52.056;8.510;2022-12-07T00:48:38;4.60;99.90
26278;DHT22;14000;52.056;8.510;2022-12-07T00:51:05;4.60;99.90
26278;DHT22;14000;52.056;8.510;2022-12-07T00:53:33;4.60;99.90
26278;DHT22;14000;52.056;8.510;2022-12-07T00:56:05;4.60;99.90
26278;DHT22;14000;52.056;8.510;2022-12-07T00:58:31;4.60;99.90
26278;DHT22;14000;52.056;8.510;2022-12-07T01:01:00;4.70;99.90
26278;DHT22;14000;52.056;8.510;2022-12-07T01:03:26;4.60;99.90
26278;DHT22;14000;52.056;8.510;2022-12-07T01:05:54;4.60;99.90
26278;DHT22;14000;52.056;8.510;2022-12-07T01:08:20;4.60;99.90
26278;DHT22;14000;52.056;8.510;2022-12-07T01:10:46;4.70;99.90
26278;DHT22;14000;52.056;8.510;2022-12-07T01:13:12;4.70;99.90
26278;DHT22;14000;52.056;8.510;2022-12-07T01:15:42;4.70;99.90
26278;DHT22;14000;52.056;8.510;2022-12-07T01:18:08;4.70;99.90
26278;DHT22;14000;52.056;8.510;2022-12-07T01:20:34;4.70;99.90
26278;DHT22;14000;52.056;8.510;2022-12-07T01:22:59;4.70;99.90
26278;DHT22;14000;52.056;8.510;2022-12-07T01:25:25;4.70;99.90
26278;DHT22;14000;52.056;8.510;2022-12-07T01:27:50;4.70;99.90
26278;DHT22;14000;52.056;8.510;2022-12-07T01:30:16;4.60;99.90
26278;DHT22;14000;52.056;8.510;2022-12-07T01:32:42;4.60;99.90
26278;DHT22;14000;52.056;8.510;2022-12-07T01:35:07;4.60;99.90
26278;DHT22;14000;52.056;8.510;2022-12-07T01:37:37;4.60;99.90
26278;DHT22;14000;52.056;8.510;2022-12-07T01:40:05;4.50;99.90
26278;DHT22;14000;52.056;8.510;2022-12-07T01:42:31;4.50;99.90
26278;DHT22;14000;52.056;8.510;2022-12-07T01:48:00;4.40;99.90
26278;DHT22;14000;52.056;8.510;2022-12-07T01:50:28;4.40;99.90
26278;DHT22;14000;52.056;8.510;2022-12-07T01:52:59;4.40;99.90
26278;DHT22;14000;52.056;8.510;2022-12-07T01:55:26;4.40;99.90
26278;DHT22;14000;52.056;8.510;2022-12-07T01:57:54;4.50;99.90
26278;DHT22;14000;52.056;8.510;2022-12-07T02:00:19;4.40;99.90
26278;DHT22;14000;52.056;8.510;2022-12-07T02:02:55;4.40;99.90
26278;DHT22;14000;52.056;8.510;2022-12-07T02:05:22;4.40;99.90
26278;DHT22;14000;52.056;8.510;2022-12-07T02:07:49;4.40;99.90
26278;DHT22;14000;52.056;8.510;2022-12-07T02:10:18;4.40;99.90
26278;DHT22;14000;52.056;8.510;2022-12-07T02:12:47;4.30;99.90
26278;DHT22;14000;52.056;8.510;2022-12-07T02:15:14;4.40;99.90
26278;DHT22;14000;52.056;8.510;2022-12-07T02:20:30;4.30;99.90
26278;DHT22;14000;52.056;8.510;2022-12-07T02:23:16;4.30;99.90
26278;DHT22;14000;52.056;8.510;2022-12-07T02:26:23;4.20;99.90
26278;DHT22;14000;52.056;8.510;2022-12-07T02:31:34;4.20;99.90
26278;DHT22;14000;52.056;8.510;2022-12-07T02:34:09;4.10;99.90
26278;DHT22;14000;52.056;8.510;2022-12-07T02:36:40;4.10;99.90
26278;DHT22;14000;52.056;8.510;2022-12-07T02:39:18;4.10;99.90
26278;DHT22;14000;52.056;8.510;2022-12-07T02:41:55;4.20;99.90
26278;DHT22;14000;52.056;8.510;2022-12-07T02:44:25;4.10;99.90
26278;DHT22;14000;52.056;8.510;2022-12-07T02:47:05;4.20;99.90
26278;DHT22;14000;52.056;8.510;2022-12-07T02:49:32;4.10;99.90
26278;DHT22;14000;52.056;8.510;2022-12-07T02:51:58;4.10;99.90
26278;DHT22;14000;52.056;8.510;2022-12-07T02:54:23;4.10;99.90
26278;DHT22;14000;52.056;8.510;2022-12-07T02:56:55;4.00;99.90
26278;DHT22;14000;52.056;8.510;2022-12-07T03:02:28;4.00;99.90
26278;DHT22;14000;52.056;8.510;2022-12-07T03:08:07;4.00;99.90
26278;DHT22;14000;52.056;8.510;2022-12-07T03:10:50;3.90;99.90
26278;DHT22;14000;52.056;8.510;2022-12-07T03:13:50;3.90;99.90
26278;DHT22;14000;52.056;8.510;2022-12-07T03:19:04;3.90;99.90
26278;DHT22;14000;52.056;8.510;2022-12-07T03:21:34;3.90;99.90
26278;DHT22;14000;52.056;8.510;2022-12-07T03:24:05;3.90;99.90
26278;DHT22;14000;52.056;8.510;2022-12-07T03:26:35;3.90;99.90
26278;DHT22;14000;52.056;8.510;2022-12-07T03:29:08;3.90;99.90
26278;DHT22;14000;52.056;8.510;2022-12-07T03:31:45;3.90;99.90
26278;DHT22;14000;52.056;8.510;2022-12-07T03:34:21;3.90;99.90
26278;DHT22;14000;52.056;8.510;2022-12-07T03:37:03;3.90;99.90
26278;DHT22;14000;52.056;8.510;2022-12-07T03:39:46;3.90;99.90
26278;DHT22;14000;52.056;8.510;2022-12-07T03:42:15;3.90;99.90
26278;DHT22;14000;52.056;8.510;2022-12-07T03:44:41;3.90;99.90
26278;DHT22;14000;52.056;8.510;2022-12-07T03:49:55;3.80;99.90
26278;DHT22;14000;52.056;8.510;2022-12-07T03:52:24;3.80;99.90
26278;DHT22;14000;52.056;8.510;2022-12-07T03:55:01;3.90;99.90
26278;DHT22;14000;52.056;8.510;2022-12-07T03:57:30;3.90;99.90
26278;DHT22;14000;52.056;8.510;2022-12-07T03:59:58;3.80;99.90
26278;DHT22;14000;52.056;8.510;2022-12-07T04:02:27;3.80;99.90
26278;DHT22;14000;52.056;8.510;2022-12-07T04:04:53;3.80;99.90
26278;DHT22;14000;52.056;8.510;2022-12-07T04:07:19;3.90;99.90
26278;DHT22;14000;52.056;8.510;2022-12-07T04:09:44;3.90;99.90
26278;DHT22;14000;52.056;8.510;2022-12-07T04:12:10;3.90;99.90
26278;DHT22;14000;52.056;8.510;2022-12-07T04:14:36;3.90;99.90
26278;DHT22;14000;52.056;8.510;2022-12-07T04:17:01;3.90;99.90
26278;DHT22;14000;52.056;8.510;2022-12-07T04:19:29;3.90;99.90
26278;DHT22;14000;52.056;8.510;2022-12-07T04:21:56;3.90;99.90
26278;DHT22;14000;52.056;8.510;2022-12-07T04:24:22;3.90;99.90
26278;DHT22;14000;52.056;8.510;2022-12-07T04:26:48;3.90;99.90
26278;DHT22;14000;52.056;8.510;2022-12-07T04:29:14;3.90;99.90
26278;DHT22;14000;52.056;8.510;2022-12-07T04:31:40;3.80;99.90
26278;DHT22;14000;52.056;8.510;2022-12-07T04:34:06;3.80;99.90
26278;DHT22;14000;52.056;8.510;2022-12-07T04:36:32;3.90;99.90
26278;DHT22;14000;52.056;8.510;2022-12-07T04:38:59;3.80;99.90
26278;DHT22;14000;52.056;8.510;2022-12-07T04:41:25;3.80;99.90
26278;DHT22;14000;52.056;8.510;2022-12-07T04:43:58;3.70;99.90
26278;DHT22;14000;52.056;8.510;2022-12-07T04:46:25;3.70;99.90
26278;DHT22;14000;52.056;8.510;2022-12-07T04:48:52;3.70;99.90
26278;DHT22;14000;52.056;8.510;2022-12-07T04:51:24;3.70;99.90
26278;DHT22;14000;52.056;8.510;2022-12-07T04:53:50;3.70;99.90
26278;DHT22;14000;52.056;8.510;2022-12-07T04:56:16;3.70;99.90
26278;DHT22;14000;52.056;8.510;2022-12-07T04:58:43;3.70;99.90
26278;DHT22;14000;52.056;8.510;2022-12-07T05:01:09;3.70;99.90
26278;DHT22;14000;52.056;8.510;2022-12-07T05:03:36;3.70;99.90
26278;DHT22;14000;52.056;8.510;2022-12-07T05:06:03;3.70;99.90
26278;DHT22;14000;52.056;8.510;2022-12-07T05:08:29;3.70;99.90
26278;DHT22;14000;52.056;8.510;2022-12-07T05:10:54;3.70;99.90
26278;DHT22;14000;52.056;8.510;2022-12-07T05:13:20;3.70;99.90
26278;DHT22;14000;52.056;8.510;2022-12-07T05:15:47;3.70;99.90
26278;DHT22;14000;52.056;8.510;2022-12-07T05:18:13;3.70;99.90
26278;DHT22;14000;52.056;8.510;2022-12-07T05:20:39;3.70;99.90
26278;DHT22;14000;52.056;8.510;2022-12-07T05:23:04;3.70;99.90
26278;DHT22;14000;52.056;8.510;2022-12-07T05:25:30;3.70;99.90
26278;DHT22;14000;52.056;8.510;2022-12-07T05:27:56;3.70;99.90
26278;DHT22;14000;52.056;8.510;2022-12-07T05:30:23;3.70;99.90
26278;DHT22;14000;52.056;8.510;2022-12-07T05:32:49;3.70;99.90
26278;DHT22;14000;52.056;8.510;2022-12-07T05:35:14;3.70;99.90
26278;DHT22;14000;52.056;8.510;2022-12-07T05:37:40;3.70;99.90
26278;DHT22;14000;52.056;8.510;2022-12-07T05:40:06;3.70;99.90
26278;DHT22;14000;52.056;8.510;2022-12-07T05:42:32;3.70;99.90
26278;DHT22;14000;52.056;8.510;2022-12-07T05:44:58;3.70;99.90
26278;DHT22;14000;52.056;8.510;2022-12-07T05:47:23;3.60;99.90
26278;DHT22;14000;52.056;8.510;2022-12-07T05:49:49;3.60;99.90
26278;DHT22;14000;52.056;8.510;2022-12-07T05:52:14;3.60;99.90
26278;DHT22;14000;52.056;8.510;2022-12-07T05:54:40;4.40;99.90
26278;DHT22;14000;52.056;8.510;2022-12-07T05:57:06;3.60;99.90
26278;DHT22;14000;52.056;8.510;2022-12-07T05:59:31;3.50;99.90
26278;DHT22;14000;52.056;8.510;2022-12-07T06:01:59;3.50;99.90
26278;DHT22;14000;52.056;8.510;2022-12-07T06:04:27;3.50;99.90
26278;DHT22;14000;52.056;8.510;2022-12-07T06:06:53;3.50;99.90
26278;DHT22;14000;52.056;8.510;2022-12-07T06:09:20;3.40;99.90
26278;DHT22;14000;52.056;8.510;2022-12-07T06:11:47;3.40;99.90
26278;DHT22;14000;52.056;8.510;2022-12-07T06:14:31;3.40;99.90
26278;DHT22;14000;52.056;8.510;2022-12-07T06:16:57;3.40;99.90
26278;DHT22;14000;52.056;8.510;2022-12-07T06:19:23;3.40;99.90
26278;DHT22;14000;52.056;8.510;2022-12-07T06:21:48;3.50;99.90
26278;DHT22;14000;52.056;8.510;2022-12-07T06:24:15;3.30;99.90
26278;DHT22;14000;52.056;8.510;2022-12-07T06:26:41;3.30;99.90
26278;DHT22;14000;52.056;8.510;2022-12-07T06:29:07;3.20;99.90
26278;DHT22;14000;52.056;8.510;2022-12-07T06:31:33;3.20;99.90
26278;DHT22;14000;52.056;8.510;2022-12-07T06:34:00;3.20;99.90
26278;DHT22;14000;52.056;8.510;2022-12-07T06:36:25;3.20;99.90
26278;DHT22;14000;52.056;8.510;2022-12-07T06:38:51;3.10;99.90
26278;DHT22;14000;52.056;8.510;2022-12-07T06:41:17;3.20;99.90
26278;DHT22;14000;52.056;8.510;2022-12-07T06:43:43;3.20;99.90
26278;DHT22;14000;52.056;8.510;2022-12-07T06:46:08;3.20;99.90
26278;DHT22;14000;52.056;8.510;2022-12-07T06:48:34;3.10;99.90
26278;DHT22;14000;52.056;8.510;2022-12-07T06:50:59;3.10;99.90
26278;DHT22;14000;52.056;8.510;2022-12-07T06:53:25;3.10;99.90
26278;DHT22;14000;52.056;8.510;2022-12-07T06:55:51;3.10;99.90
26278;DHT22;14000;52.056;8.510;2022-12-07T06:58:17;3.00;99.90
26278;DHT22;14000;52.056;8.510;2022-12-07T07:00:43;3.00;99.90
26278;DHT22;14000;52.056;8.510;2022-12-07T07:03:08;3.00;99.90
26278;DHT22;14000;52.056;8.510;2022-12-07T07:05:34;3.00;99.90
26278;DHT22;14000;52.056;8.510;2022-12-07T07:08:00;3.10;99.90
26278;DHT22;14000;52.056;8.510;2022-12-07T07:10:26;3.00;99.90
26278;DHT22;14000;52.056;8.510;2022-12-07T07:12:51;3.00;99.90
26278;DHT22;14000;52.056;8.510;2022-12-07T07:15:17;3.00;99.90
26278;DHT22;14000;52.056;8.510;2022-12-07T07:17:43;3.00;99.90
26278;DHT22;14000;52.056;8.510;2022-12-07T07:20:09;3.00;99.90
26278;DHT22;14000;52.056;8.510;2022-12-07T07:22:34;2.90;99.90
26278;DHT22;14000;52.056;8.510;2022-12-07T07:25:00;2.90;99.90
26278;DHT22;14000;52.056;8.510;2022-12-07T07:27:26;2.90;99.90
26278;DHT22;14000;52.056;8.510;2022-12-07T07:29:51;2.90;99.90
26278;DHT22;14000;52.056;8.510;2022-12-07T07:32:17;3.00;99.90
26278;DHT22;14000;52.056;8.510;2022-12-07T07:34:42;3.00;99.90
26278;DHT22;14000;52.056;8.510;2022-12-07T07:37:08;3.00;99.90
26278;DHT22;14000;52.056;8.510;2022-12-07T07:39:33;2.90;99.90
26278;DHT22;14000;52.056;8.510;2022-12-07T07:41:59;2.90;99.90
26278;DHT22;14000;52.056;8.510;2022-12-07T07:44:24;2.90;99.90
26278;DHT22;14000;52.056;8.510;2022-12-07T07:46:50;2.90;99.90
26278;DHT22;14000;52.056;8.510;2022-12-07T07:49:16;2.90;99.90
26278;DHT22;14000;52.056;8.510;2022-12-07T07:51:41;3.00;99.90
26278;DHT22;14000;52.056;8.510;2022-12-07T07:54:07;2.90;99.90
26278;DHT22;14000;52.056;8.510;2022-12-07T07:56:32;3.00;99.90
26278;DHT22;14000;52.056;8.510;2022-12-07T07:58:58;2.90;99.90
26278;DHT22;14000;52.056;8.510;2022-12-07T08:01:23;2.90;99.90
26278;DHT22;14000;52.056;8.510;2022-12-07T08:03:49;3.00;99.90
26278;DHT22;14000;52.056;8.510;2022-12-07T08:06:14;2.90;99.90
26278;DHT22;14000;52.056;8.510;2022-12-07T08:08:40;2.90;99.90
26278;DHT22;14000;52.056;8.510;2022-12-07T08:11:06;3.00;99.90
26278;DHT22;14000;52.056;8.510;2022-12-07T08:13:32;3.00;99.90
26278;DHT22;14000;52.056;8.510;2022-12-07T08:15:58;3.00;99.90
26278;DHT22;14000;52.056;8.510;2022-12-07T08:18:28;3.00;99.90
26278;DHT22;14000;52.056;8.510;2022-12-07T08:20:59;3.10;99.90
26278;DHT22;14000;52.056;8.510;2022-12-07T08:23:25;3.10;99.90
26278;DHT22;14000;52.056;8.510;2022-12-07T08:25:50;3.20;99.90
26278;DHT22;14000;52.056;8.510;2022-12-07T08:28:16;3.20;99.90
26278;DHT22;14000;52.056;8.510;2022-12-07T08:30:41;3.30;99.90
26278;DHT22;14000;52.056;8.510;2022-12-07T08:33:08;3.40;99.90
26278;DHT22;14000;52.056;8.510;2022-12-07T08:35:34;3.40;99.90
26278;DHT22;14000;52.056;8.510;2022-12-07T08:37:59;3.40;99.90
26278;DHT22;14000;52.056;8.510;2022-12-07T08:40:27;3.40;99.90
26278;DHT22;14000;52.056;8.510;2022-12-07T08:42:53;3.50;99.90
26278;DHT22;14000;52.056;8.510;2022-12-07T08:45:20;3.50;99.90
26278;DHT22;14000;52.056;8.510;2022-12-07T08:48:12;3.50;99.90
26278;DHT22;14000;52.056;8.510;2022-12-07T08:50:38;3.60;99.90
26278;DHT22;14000;52.056;8.510;2022-12-07T08:53:05;3.60;99.90
26278;DHT22;14000;52.056;8.510;2022-12-07T08:55:31;3.60;99.90
26278;DHT22;14000;52.056;8.510;2022-12-07T08:57:59;3.50;99.90
26278;DHT22;14000;52.056;8.510;2022-12-07T09:00:25;3.60;99.90
26278;DHT22;14000;52.056;8.510;2022-12-07T09:02:51;3.50;99.90
26278;DHT22;14000;52.056;8.510;2022-12-07T09:05:18;3.60;99.90
26278;DHT22;14000;52.056;8.510;2022-12-07T09:07:47;3.50;99.90
26278;DHT22;14000;52.056;8.510;2022-12-07T09:10:13;3.50;99.90
26278;DHT22;14000;52.056;8.510;2022-12-07T09:12:39;3.50;99.90
26278;DHT22;14000;52.056;8.510;2022-12-07T09:15:05;3.60;99.90
26278;DHT22;14000;52.056;8.510;2022-12-07T09:17:32;3.60;99.90
26278;DHT22;14000;52.056;8.510;2022-12-07T09:19:58;3.70;99.90
26278;DHT22;14000;52.056;8.510;2022-12-07T09:22:24;3.80;99.90
26278;DHT22;14000;52.056;8.510;2022-12-07T09:24:49;3.80;99.90
26278;DHT22;14000;52.056;8.510;2022-12-07T09:27:15;4.00;99.90
26278;DHT22;14000;52.056;8.510;2022-12-07T09:29:42;4.10;99.90
26278;DHT22;14000;52.056;8.510;2022-12-07T09:32:08;4.10;99.90
26278;DHT22;14000;52.056;8.510;2022-12-07T09:34:34;4.20;99.90
26278;DHT22;14000;52.056;8.510;2022-12-07T09:37:00;4.20;99.90
26278;DHT22;14000;52.056;8.510;2022-12-07T09:39:27;4.10;99.90
26278;DHT22;14000;52.056;8.510;2022-12-07T09:41:52;4.10;99.90
26278;DHT22;14000;52.056;8.510;2022-12-07T09:44:23;4.10;99.90
26278;DHT22;14000;52.056;8.510;2022-12-07T09:46:49;4.10;99.90
26278;DHT22;14000;52.056;8.510;2022-12-07T09:49:23;4.10;99.90
26278;DHT22;14000;52.056;8.510;2022-12-07T09:52:20;4.10;99.90
26278;DHT22;14000;52.056;8.510;2022-12-07T09:54:48;4.10;99.90
26278;DHT22;14000;52.056;8.510;2022-12-07T09:57:15;4.00;99.90
26278;DHT22;14000;52.056;8.510;2022-12-07T09:59:41;4.00;99.90
26278;DHT22;14000;52.056;8.510;2022-12-07T10:04:58;4.00;99.90
26278;DHT22;14000;52.056;8.510;2022-12-07T10:07:24;4.10;99.90
26278;DHT22;14000;52.056;8.510;2022-12-07T10:09:49;4.10;99.90
26278;DHT22;14000;52.056;8.510;2022-12-07T10:12:15;4.10;99.90
26278;DHT22;14000;52.056;8.510;2022-12-07T10:15:00;4.10;99.90
26278;DHT22;14000;52.056;8.510;2022-12-07T10:17:36;4.20;99.90
26278;DHT22;14000;52.056;8.510;2022-12-07T10:20:30;4.20;99.90
26278;DHT22;14000;52.056;8.510;2022-12-07T10:22:59;4.20;99.90
26278;DHT22;14000;52.056;8.510;2022-12-07T10:25:28;4.20;99.90
26278;DHT22;14000;52.056;8.510;2022-12-07T10:28:08;4.30;99.90
26278;DHT22;14000;52.056;8.510;2022-12-07T10:30:47;4.40;99.90
26278;DHT22;14000;52.056;8.510;2022-12-07T10:33:33;4.40;99.90
26278;DHT22;14000;52.056;8.510;2022-12-07T10:36:00;4.40;99.90
26278;DHT22;14000;52.056;8.510;2022-12-07T10:38:27;4.40;99.90
26278;DHT22;14000;52.056;8.510;2022-12-07T10:41:07;4.40;99.90
26278;DHT22;14000;52.056;8.510;2022-12-07T10:43:32;4.50;99.90
26278;DHT22;14000;52.056;8.510;2022-12-07T10:49:44;4.60;99.90
26278;DHT22;14000;52.056;8.510;2022-12-07T10:55:22;4.60;99.90
26278;DHT22;14000;52.056;8.510;2022-12-07T11:00:43;4.70;99.90
26278;DHT22;14000;52.056;8.510;2022-12-07T11:03:35;4.70;99.90
26278;DHT22;14000;52.056;8.510;2022-12-07T11:06:24;4.70;99.90
26278;DHT22;14000;52.056;8.510;2022-12-07T11:14:08;4.80;99.90
26278;DHT22;14000;52.056;8.510;2022-12-07T11:16:55;4.80;99.90
26278;DHT22;14000;52.056;8.510;2022-12-07T11:25:27;4.80;99.90
26278;DHT22;14000;52.056;8.510;2022-12-07T11:28:13;4.90;99.90
26278;DHT22;14000;52.056;8.510;2022-12-07T11:36:40;5.00;99.90
26278;DHT22;14000;52.056;8.510;2022-12-07T11:41:50;5.10;99.90
26278;DHT22;14000;52.056;8.510;2022-12-07T11:44:25;5.40;99.90
26278;DHT22;14000;52.056;8.510;2022-12-07T11:47:16;5.80;99.90
26278;DHT22;14000;52.056;8.510;2022-12-07T11:49:57;6.20;99.90
26278;DHT22;14000;52.056;8.510;2022-12-07T11:52:48;6.10;99.90
26278;DHT22;14000;52.056;8.510;2022-12-07T11:55:22;5.90;99.90
26278;DHT22;14000;52.056;8.510;2022-12-07T11:57:56;5.70;99.90
26278;DHT22;14000;52.056;8.510;2022-12-07T12:00:23;5.50;99.90
26278;DHT22;14000;52.056;8.510;2022-12-07T12:02:58;5.50;99.90
26278;DHT22;14000;52.056;8.510;2022-12-07T12:05:25;5.50;99.90
26278;DHT22;14000;52.056;8.510;2022-12-07T12:10:47;5.80;99.90
26278;DHT22;14000;52.056;8.510;2022-12-07T12:21:56;6.10;99.90
26278;DHT22;14000;52.056;8.510;2022-12-07T12:24:25;6.10;99.90
26278;DHT22;14000;52.056;8.510;2022-12-07T12:26:56;6.10;99.90
26278;DHT22;14000;52.056;8.510;2022-12-07T12:32:14;6.20;99.90
26278;DHT22;14000;52.056;8.510;2022-12-07T12:43:26;5.80;99.90
26278;DHT22;14000;52.056;8.510;2022-12-07T12:45:34;5.70;99.90
26278;DHT22;14000;52.056;8.510;2022-12-07T12:48:37;5.60;99.90
26278;DHT22;14000;52.056;8.510;2022-12-07T12:51:38;5.60;99.90
26278;DHT22;14000;52.056;8.510;2022-12-07T12:54:08;5.50;99.90
26278;DHT22;14000;52.056;8.510;2022-12-07T12:56:46;5.50;99.90
26278;DHT22;14000;52.056;8.510;2022-12-07T12:59:29;5.60;99.90
26278;DHT22;14000;52.056;8.510;2022-12-07T13:15:42;5.50;99.90
26278;DHT22;14000;52.056;8.510;2022-12-07T13:28:39;5.50;99.90
26278;DHT22;14000;52.056;8.510;2022-12-07T13:31:23;5.40;99.90
26278;DHT22;14000;52.056;8.510;2022-12-07T13:33:51;5.30;99.90
26278;DHT22;14000;52.056;8.510;2022-12-07T13:36:26;5.30;99.90
26278;DHT22;14000;52.056;8.510;2022-12-07T13:41:22;5.20;99.90
26278;DHT22;14000;52.056;8.510;2022-12-07T13:46:37;5.20;99.90
26278;DHT22;14000;52.056;8.510;2022-12-07T13:49:20;5.20;99.90
26278;DHT22;14000;52.056;8.510;2022-12-07T13:51:46;5.20;99.90
26278;DHT22;14000;52.056;8.510;2022-12-07T13:54:13;5.20;99.90
26278;DHT22;14000;52.056;8.510;2022-12-07T13:56:39;5.30;99.90
26278;DHT22;14000;52.056;8.510;2022-12-07T13:59:16;5.30;99.90
26278;DHT22;14000;52.056;8.510;2022-12-07T14:01:42;5.30;99.90
26278;DHT22;14000;52.056;8.510;2022-12-07T14:04:19;5.30;99.90
26278;DHT22;14000;52.056;8.510;2022-12-07T14:06:52;5.30;99.90
26278;DHT22;14000;52.056;8.510;2022-12-07T14:09:20;5.20;99.90
26278;DHT22;14000;52.056;8.510;2022-12-07T14:11:48;5.30;99.90
26278;DHT22;14000;52.056;8.510;2022-12-07T14:14:18;5.20;99.90
26278;DHT22;14000;52.056;8.510;2022-12-07T14:16:58;5.10;99.90
26278;DHT22;14000;52.056;8.510;2022-12-07T14:22:31;5.20;99.90
26278;DHT22;14000;52.056;8.510;2022-12-07T14:25:11;5.10;99.90
26278;DHT22;14000;52.056;8.510;2022-12-07T14:27:47;5.20;99.90
26278;DHT22;14000;52.056;8.510;2022-12-07T14:30:18;5.10;99.90
26278;DHT22;14000;52.056;8.510;2022-12-07T14:32:44;5.10;99.90
26278;DHT22;14000;52.056;8.510;2022-12-07T14:35:16;5.10;99.90
26278;DHT22;14000;52.056;8.510;2022-12-07T14:37:44;5.00;99.90
26278;DHT22;14000;52.056;8.510;2022-12-07T14:40:22;5.00;99.90
26278;DHT22;14000;52.056;8.510;2022-12-07T14:42:51;5.00;99.90
26278;DHT22;14000;52.056;8.510;2022-12-07T14:45:19;5.00;99.90
26278;DHT22;14000;52.056;8.510;2022-12-07T14:47:45;4.90;99.90
26278;DHT22;14000;52.056;8.510;2022-12-07T14:50:14;4.80;99.90
26278;DHT22;14000;52.056;8.510;2022-12-07T14:52:40;4.90;99.90
26278;DHT22;14000;52.056;8.510;2022-12-07T14:55:23;4.90;99.90
26278;DHT22;14000;52.056;8.510;2022-12-07T14:57:49;4.80;99.90
26278;DHT22;14000;52.056;8.510;2022-12-07T15:00:16;4.80;99.90
26278;DHT22;14000;52.056;8.510;2022-12-07T15:02:43;4.80;99.90
26278;DHT22;14000;52.056;8.510;2022-12-07T15:05:09;4.90;99.90
26278;DHT22;14000;52.056;8.510;2022-12-07T15:07:35;4.90;99.90
26278;DHT22;14000;52.056;8.510;2022-12-07T15:10:00;4.80;99.90
26278;DHT22;14000;52.056;8.510;2022-12-07T15:12:26;4.80;99.90
26278;DHT22;14000;52.056;8.510;2022-12-07T15:14:52;4.80;99.90
26278;DHT22;14000;52.056;8.510;2022-12-07T15:17:17;4.80;99.90
26278;DHT22;14000;52.056;8.510;2022-12-07T15:19:43;4.80;99.90
26278;DHT22;14000;52.056;8.510;2022-12-07T15:22:09;4.80;99.90
26278;DHT22;14000;52.056;8.510;2022-12-07T15:24:36;4.80;99.90
26278;DHT22;14000;52.056;8.510;2022-12-07T15:27:02;4.70;99.90
26278;DHT22;14000;52.056;8.510;2022-12-07T15:29:28;4.70;99.90
26278;DHT22;14000;52.056;8.510;2022-12-07T15:31:53;4.70;99.90
26278;DHT22;14000;52.056;8.510;2022-12-07T15:34:19;4.80;99.90
26278;DHT22;14000;52.056;8.510;2022-12-07T15:36:45;4.70;99.90
26278;DHT22;14000;52.056;8.510;2022-12-07T15:39:11;4.70;99.90
26278;DHT22;14000;52.056;8.510;2022-12-07T15:41:37;4.70;99.90
26278;DHT22;14000;52.056;8.510;2022-12-07T15:44:02;4.70;99.90
26278;DHT22;14000;52.056;8.510;2022-12-07T15:46:47;3.80;99.90
26278;DHT22;14000;52.056;8.510;2022-12-07T15:49:15;4.80;99.90
26278;DHT22;14000;52.056;8.510;2022-12-07T15:51:42;4.70;99.90
26278;DHT22;14000;52.056;8.510;2022-12-07T15:54:16;4.70;99.90
26278;DHT22;14000;52.056;8.510;2022-12-07T15:56:43;4.70;99.90
26278;DHT22;14000;52.056;8.510;2022-12-07T15:59:08;4.60;99.90
26278;DHT22;14000;52.056;8.510;2022-12-07T16:01:34;4.60;99.90
26278;DHT22;14000;52.056;8.510;2022-12-07T16:03:59;4.40;99.90
26278;DHT22;14000;52.056;8.510;2022-12-07T16:06:26;4.00;99.90
26278;DHT22;14000;52.056;8.510;2022-12-07T16:08:52;3.60;99.90
26278;DHT22;14000;52.056;8.510;2022-12-07T16:11:18;3.20;99.90
26278;DHT22;14000;52.056;8.510;2022-12-07T16:13:43;2.80;99.90
26278;DHT22;14000;52.056;8.510;2022-12-07T16:16:17;2.80;99.90
26278;DHT22;14000;52.056;8.510;2022-12-07T16:18:45;2.60;99.90
26278;DHT22;14000;52.056;8.510;2022-12-07T16:21:11;2.30;99.90
26278;DHT22;14000;52.056;8.510;2022-12-07T16:23:37;2.20;99.90
26278;DHT22;14000;52.056;8.510;2022-12-07T16:26:15;2.20;99.90
26278;DHT22;14000;52.056;8.510;2022-12-07T16:28:41;2.00;99.90
26278;DHT22;14000;52.056;8.510;2022-12-07T16:31:10;2.00;99.90
26278;DHT22;14000;52.056;8.510;2022-12-07T16:33:37;2.00;99.90
26278;DHT22;14000;52.056;8.510;2022-12-07T16:36:04;1.90;99.90
26278;DHT22;14000;52.056;8.510;2022-12-07T16:38:30;2.00;99.90
26278;DHT22;14000;52.056;8.510;2022-12-07T16:40:56;2.00;99.90
26278;DHT22;14000;52.056;8.510;2022-12-07T16:43:21;1.90;99.90
26278;DHT22;14000;52.056;8.510;2022-12-07T16:45:47;1.90;99.90
26278;DHT22;14000;52.056;8.510;2022-12-07T16:48:17;1.90;99.90
26278;DHT22;14000;52.056;8.510;2022-12-07T16:50:43;1.90;99.90
26278;DHT22;14000;52.056;8.510;2022-12-07T16:53:11;2.00;99.90
26278;DHT22;14000;52.056;8.510;2022-12-07T16:55:45;2.00;99.90
26278;DHT22;14000;52.056;8.510;2022-12-07T16:58:14;2.20;99.90
26278;DHT22;14000;52.056;8.510;2022-12-07T17:00:41;2.40;99.90
26278;DHT22;14000;52.056;8.510;2022-12-07T17:03:08;2.60;99.90
26278;DHT22;14000;52.056;8.510;2022-12-07T17:05:41;2.70;99.90
26278;DHT22;14000;52.056;8.510;2022-12-07T17:08:07;2.90;99.90
26278;DHT22;14000;52.056;8.510;2022-12-07T17:10:35;3.00;99.90
26278;DHT22;14000;52.056;8.510;2022-12-07T17:13:03;3.00;99.90
26278;DHT22;14000;52.056;8.510;2022-12-07T17:16:00;3.10;99.90
26278;DHT22;14000;52.056;8.510;2022-12-07T17:18:31;3.10;99.90
26278;DHT22;14000;52.056;8.510;2022-12-07T17:21:05;3.10;99.90
26278;DHT22;14000;52.056;8.510;2022-12-07T17:23:32;3.20;99.90
26278;DHT22;14000;52.056;8.510;2022-12-07T17:26:19;3.20;99.90
26278;DHT22;14000;52.056;8.510;2022-12-07T17:28:45;3.20;99.90
26278;DHT22;14000;52.056;8.510;2022-12-07T17:31:16;3.30;99.90
26278;DHT22;14000;52.056;8.510;2022-12-07T17:33:42;3.30;99.90
26278;DHT22;14000;52.056;8.510;2022-12-07T17:36:19;3.30;99.90
26278;DHT22;14000;52.056;8.510;2022-12-07T17:38:45;3.30;99.90
26278;DHT22;14000;52.056;8.510;2022-12-07T17:41:19;3.30;99.90
26278;DHT22;14000;52.056;8.510;2022-12-07T17:44:06;3.30;99.90
26278;DHT22;14000;52.056;8.510;2022-12-07T17:46:32;3.40;99.90